メインページ
METAR-TAF:

METAR-TAF

空港 :

テルアビブ / ベン・グリオン, イスラエル

ベン・グリオン国際空港

緯度: 32-00N, 経度: 034-54E, 海抜: 40m

現時点の気象観測

当レポートは35分前の05:20(UTC)に作成
変向風 1kt
気温 28°C
湿度 58%
気圧 1010 hPa
視程10km以上
1,500メートル以下は雲なし、積乱雲なし

METAR: LLBG 200520Z VRB01KT CAVOK 28/19 Q1010 NOSIG

時間: 08:55 (05:55 UTC)

予報

当レポートは46分前の05:09(UTC)に作成
予報は20日の 06時(UTC)から 21日の 06時(UTC)まで有効
変向風 4kt
視程10km以上
1,500メートル以下は雲なし、積乱雲なし
20日の 07時(UTC)から 20日の 09時(UTC)まで徐々に
北西の風 10kt
20日の 15時(UTC)から 20日の 18時(UTC)まで徐々に
の風 5kt
視程10km以上
高度2200ftの雲は散在している
20日の 20時(UTC)から 20日の 22時(UTC)まで徐々に
東/南東の風 4kt

TAF: LLBG 200509Z 2006/2106 VRB04KT CAVOK BECMG 2007/2009 31010KT BECMG 2015/2018 36005KT 9999 SCT022 BECMG 2020/2022 12004KT TX33/2011Z TN25/2104Z

4,000以上の空港の気象観測と天気予報(METAR報とTAF報)

利用可能な観測所は地図上に黄色い丸と赤い丸で示す。

丸の上にカーソルを重ねると観測所名を参照できる。

次にクリックすると気象観測と天気予報を参照できる。

マップの切り替え:黒色「×」印の緑ボタンをクリックして拡大、「-」印の緑ボタンをクリックして縮小、緑色の三角印をクリックして隣りの地図に切り替え


METAR-TAF: